Time;durP1;ratioP1;P1;durP2;ratioP2;P2;SDS_P1;SDS_P2;PMS_P1;PMS_P2;Temp;Humidity;BMP_temperature;BMP_pressure;BME280_temperature;BME280_humidity;BME280_pressure;Samples;Min_cycle;Max_cycle;Signal;HPM_P1;HPM_P2
2023/04/02 00:00:13;;;;;;;0.63;0.60;;;;;;;;;;10417037;28;20037;-79
2023/04/02 00:05:49;;;;;;;0.40;0.40;;;;;;;;;;10412177;28;20427;-80
2023/04/02 00:10:55;;;;;;;0.38;0.30;;;;;;;;;;10407744;28;20407;-80
2023/04/02 00:15:58;;;;;;;1.30;0.20;;;;;;;;;;10414405;28;20437;-79
2023/04/02 00:21:07;;;;;;;1.13;0.60;;;;;;;;;;10411387;28;20520;-79
2023/04/02 00:26:22;;;;;;;0.10;0.10;;;;;;;;;;10409931;28;20045;-80
2023/04/02 00:31:25;;;;;;;0.68;0.57;;;;;;;;;;10410191;28;20532;-79
2023/04/02 00:36:30;;;;;;;0.40;0.40;;;;;;;;;;10415517;28;20049;-79
2023/04/02 00:41:37;;;;;;;1.48;0.32;;;;;;;;;;10407739;28;20030;-78
2023/04/02 00:46:47;;;;;;;0.30;0.22;;;;;;;;;;10407381;28;20044;-79
2023/04/02 00:51:52;;;;;;;2.75;0.40;;;;;;;;;;10409630;28;20090;-79
2023/04/02 00:56:58;;;;;;;0.00;0.00;;;;;;;;;;10416126;28;20378;-80
2023/04/02 01:02:21;;;;;;;0.73;0.20;;;;;;;;;;10413797;28;20213;-78
2023/04/02 01:07:31;;;;;;;0.50;0.47;;;;;;;;;;10414264;28;20526;-81
2023/04/02 01:12:50;;;;;;;0.30;0.20;;;;;;;;;;10415834;28;20029;-80
2023/04/02 01:18:02;;;;;;;1.55;0.30;;;;;;;;;;10420399;28;20500;-79
2023/04/02 01:23:07;;;;;;;0.82;0.57;;;;;;;;;;10413592;28;20125;-78
2023/04/02 01:28:18;;;;;;;1.55;0.20;;;;;;;;;;10418925;28;20040;-78
2023/04/02 01:33:23;;;;;;;0.38;0.30;;;;;;;;;;10417979;28;20044;-78
2023/04/02 01:38:28;;;;;;;1.38;0.30;;;;;;;;;;10417914;28;20108;-79
2023/04/02 01:43:34;;;;;;;0.63;0.28;;;;;;;;;;10414249;28;20030;-79
2023/04/02 01:48:39;;;;;;;0.57;0.45;;;;;;;;;;10420216;28;20100;-78
2023/04/02 01:53:42;;;;;;;0.68;0.40;;;;;;;;;;10419896;28;20037;-79
2023/04/02 01:58:48;;;;;;;1.35;0.32;;;;;;;;;;10409519;28;20053;-79
2023/04/02 02:03:53;;;;;;;0.15;0.15;;;;;;;;;;10413370;28;20038;-80
2023/04/02 02:08:58;;;;;;;0.25;0.10;;;;;;;;;;10415039;28;20502;-78
2023/04/02 02:14:01;;;;;;;0.20;0.13;;;;;;;;;;10410809;28;20041;-80
2023/04/02 02:19:21;;;;;;;0.30;0.22;;;;;;;;;;10413507;28;20052;-82
2023/04/02 02:24:26;;;;;;;0.67;0.10;;;;;;;;;;10419008;28;20118;-79
2023/04/02 02:29:30;;;;;;;0.55;0.40;;;;;;;;;;10420931;28;20053;-79
2023/04/02 02:34:37;;;;;;;0.32;0.32;;;;;;;;;;10420372;28;20045;-78
2023/04/02 02:39:41;;;;;;;0.30;0.17;;;;;;;;;;10414087;28;20407;-80
2023/04/02 02:44:47;;;;;;;0.30;0.20;;;;;;;;;;10410724;28;20422;-79
2023/04/02 02:49:53;;;;;;;0.43;0.10;;;;;;;;;;10416952;28;20033;-78
2023/04/02 02:54:57;;;;;;;2.28;0.60;;;;;;;;;;10412275;28;20274;-80
2023/04/02 03:00:01;;;;;;;1.40;0.43;;;;;;;;;;10416916;28;20045;-79
2023/04/02 03:05:06;;;;;;;1.02;0.17;;;;;;;;;;10411194;28;20048;-79
2023/04/02 03:10:13;;;;;;;0.52;0.22;;;;;;;;;;10412180;28;20041;-79
2023/04/02 03:15:32;;;;;;;0.85;0.20;;;;;;;;;;10414126;28;20042;-81
2023/04/02 03:20:39;;;;;;;0.35;0.30;;;;;;;;;;10409837;28;20037;-80
2023/04/02 03:25:45;;;;;;;0.20;0.20;;;;;;;;;;10415229;28;20399;-79
2023/04/02 03:30:57;;;;;;;0.32;0.13;;;;;;;;;;10416121;28;20042;-79
2023/04/02 03:36:05;;;;;;;0.10;0.10;;;;;;;;;;10407376;28;20056;-78
2023/04/02 03:41:13;;;;;;;1.35;0.30;;;;;;;;;;10413254;28;20518;-78
2023/04/02 03:46:22;;;;;;;0.47;0.40;;;;;;;;;;10413708;28;20041;-78
2023/04/02 03:51:28;;;;;;;0.40;0.32;;;;;;;;;;10414852;28;20426;-80
2023/04/02 03:56:40;;;;;;;1.58;0.20;;;;;;;;;;10418609;28;20041;-77
2023/04/02 04:01:46;;;;;;;0.45;0.40;;;;;;;;;;10388266;28;20075;-79
2023/04/02 04:06:52;;;;;;;2.13;0.30;;;;;;;;;;10411442;28;20099;-80
2023/04/02 04:12:09;;;;;;;1.63;0.38;;;;;;;;;;10411839;28;20045;-82
2023/04/02 04:17:15;;;;;;;1.95;0.22;;;;;;;;;;10408327;28;20132;-80
2023/04/02 04:22:29;;;;;;;0.57;0.17;;;;;;;;;;10414876;28;20125;-81
2023/04/02 04:27:36;;;;;;;0.47;0.43;;;;;;;;;;10413051;28;20045;-82
2023/04/02 04:32:48;;;;;;;0.60;0.30;;;;;;;;;;10414229;28;20221;-79
2023/04/02 04:37:58;;;;;;;0.15;0.15;;;;;;;;;;10409643;28;20393;-79
2023/04/02 04:43:03;;;;;;;0.20;0.20;;;;;;;;;;10411951;28;20438;-79
2023/04/02 04:48:08;;;;;;;1.17;0.30;;;;;;;;;;10421936;28;20045;-80
2023/04/02 04:53:16;;;;;;;0.70;0.43;;;;;;;;;;10420133;28;20057;-78
2023/04/02 04:58:22;;;;;;;0.38;0.20;;;;;;;;;;10420423;28;20037;-78
2023/04/02 05:03:28;;;;;;;0.57;0.30;;;;;;;;;;10418137;28;20061;-79
2023/04/02 05:08:36;;;;;;;0.80;0.45;;;;;;;;;;10414793;28;20057;-77
2023/04/02 05:13:41;;;;;;;3.53;0.50;;;;;;;;;;10415448;28;20421;-78
2023/04/02 05:18:47;;;;;;;0.50;0.50;;;;;;;;;;10416884;28;20414;-77
2023/04/02 05:23:54;;;;;;;0.32;0.13;;;;;;;;;;10419465;28;20523;-77
2023/04/02 05:28:59;;;;;;;0.30;0.30;;;;;;;;;;10420991;28;20168;-78
2023/04/02 05:34:03;;;;;;;0.60;0.40;;;;;;;;;;10417783;28;20041;-78
2023/04/02 05:39:09;;;;;;;0.25;0.20;;;;;;;;;;10416742;28;20099;-79
2023/04/02 05:44:16;;;;;;;0.90;0.40;;;;;;;;;;10418753;28;20053;-78
2023/04/02 05:49:21;;;;;;;0.20;0.20;;;;;;;;;;10398231;28;20057;-78
2023/04/02 05:54:28;;;;;;;0.10;0.10;;;;;;;;;;10418693;28;20517;-78
2023/04/02 05:59:33;;;;;;;0.63;0.57;;;;;;;;;;10419117;28;20037;-80
2023/04/02 06:04:42;;;;;;;0.85;0.40;;;;;;;;;;10417142;28;20461;-78
2023/04/02 06:09:48;;;;;;;0.40;0.32;;;;;;;;;;10415584;28;20049;-78
2023/04/02 06:14:51;;;;;;;0.22;0.22;;;;;;;;;;10412409;28;20056;-78
2023/04/02 06:19:56;;;;;;;0.20;0.20;;;;;;;;;;10414420;28;20052;-78
2023/04/02 06:25:03;;;;;;;0.50;0.40;;;;;;;;;;10420050;28;20050;-78
2023/04/02 06:30:07;;;;;;;0.45;0.30;;;;;;;;;;10417020;28;20041;-78
2023/04/02 06:35:12;;;;;;;2.92;0.60;;;;;;;;;;10414405;28;20057;-80
2023/04/02 06:40:14;;;;;;;;;;;;;;;;;;10416395;28;20099;-80
2023/04/02 06:45:20;;;;;;;1.13;0.70;;;;;;;;;;10414409;28;19921;-78
2023/04/02 06:50:30;;;;;;;0.88;0.52;;;;;;;;;;10413192;28;20069;-77
2023/04/02 06:55:38;;;;;;;2.40;0.60;;;;;;;;;;10417623;28;20040;-77
2023/04/02 07:00:44;;;;;;;0.55;0.50;;;;;;;;;;10411185;28;20491;-78
2023/04/02 07:05:48;;;;;;;0.52;0.43;;;;;;;;;;10412394;28;20049;-79
2023/04/02 07:10:56;;;;;;;1.75;0.50;;;;;;;;;;10415622;28;20036;-78
2023/04/02 07:16:11;;;;;;;4.70;0.60;;;;;;;;;;10413162;28;20049;-79
2023/04/02 07:21:15;;;;;;;2.08;1.33;;;;;;;;;;10411393;28;20240;-80
2023/04/02 07:26:18;;;;;;;0.47;0.40;;;;;;;;;;10390547;28;20044;-79
2023/04/02 07:31:24;;;;;;;1.70;0.60;;;;;;;;;;10416232;28;20237;-79
2023/04/02 07:36:29;;;;;;;1.23;0.55;;;;;;;;;;10411113;28;20487;-79
2023/04/02 07:41:32;;;;;;;0.60;0.50;;;;;;;;;;10415240;28;20087;-82
2023/04/02 07:46:36;;;;;;;1.55;0.30;;;;;;;;;;10413458;28;20083;-79
2023/04/02 07:51:40;;;;;;;0.90;0.60;;;;;;;;;;10410941;28;20446;-80
2023/04/02 07:56:42;;;;;;;1.08;0.65;;;;;;;;;;10415363;28;20036;-79
2023/04/02 08:01:47;;;;;;;1.50;0.73;;;;;;;;;;10424836;28;20080;-78
2023/04/02 08:06:51;;;;;;;2.75;0.63;;;;;;;;;;10415678;28;20155;-81
2023/04/02 08:11:54;;;;;;;1.10;0.35;;;;;;;;;;10412190;28;20044;-79
2023/04/02 08:16:58;;;;;;;1.88;0.63;;;;;;;;;;10414353;28;20313;-81
2023/04/02 08:22:01;;;;;;;1.35;0.80;;;;;;;;;;10411205;28;20037;-79
2023/04/02 08:27:04;;;;;;;6.50;0.80;;;;;;;;;;10413574;28;20037;-78
2023/04/02 08:32:10;;;;;;;2.85;0.50;;;;;;;;;;10416965;28;20124;-80
2023/04/02 08:37:13;;;;;;;1.30;0.30;;;;;;;;;;10417588;28;20041;-80
2023/04/02 08:42:21;;;;;;;0.82;0.40;;;;;;;;;;10422462;28;20084;-80
2023/04/02 08:47:28;;;;;;;1.20;0.80;;;;;;;;;;10418111;28;20046;-79
2023/04/02 08:52:32;;;;;;;1.60;0.80;;;;;;;;;;10419076;28;20033;-81
2023/04/02 08:57:37;;;;;;;0.82;0.45;;;;;;;;;;10421552;28;20364;-80
2023/04/02 09:02:44;;;;;;;1.13;1.00;;;;;;;;;;10427460;28;20493;-81
2023/04/02 09:07:49;;;;;;;1.90;1.20;;;;;;;;;;10423028;28;20033;-80
2023/04/02 09:12:52;;;;;;;1.15;0.90;;;;;;;;;;10428564;28;20028;-77
2023/04/02 09:17:55;;;;;;;;;;;;;;;;;;10411747;28;20039;-77
2023/04/02 09:23:02;;;;;;;0.98;0.70;;;;;;;;;;10413702;28;20401;-77
2023/04/02 09:28:10;;;;;;;0.75;0.68;;;;;;;;;;10407611;28;20049;-78
2023/04/02 09:33:12;;;;;;;1.58;1.05;;;;;;;;;;10420197;28;20137;-77
2023/04/02 09:38:21;;;;;;;1.00;1.00;;;;;;;;;;10412078;28;20033;-78
2023/04/02 09:43:25;;;;;;;2.60;0.75;;;;;;;;;;10417001;28;20402;-79
2023/04/02 09:48:29;;;;;;;;;;;;;;;;;;10397156;28;20168;-78
2023/04/02 09:53:34;;;;;;;2.00;0.75;;;;;;;;;;10417995;28;20394;-78
2023/04/02 09:58:37;;;;;;;0.60;0.60;;;;;;;;;;10418834;28;20037;-77
2023/04/02 10:03:42;;;;;;;1.20;0.70;;;;;;;;;;10415249;28;20049;-78
2023/04/02 10:08:47;;;;;;;1.63;0.73;;;;;;;;;;10417549;28;20091;-76
2023/04/02 10:13:52;;;;;;;1.65;1.02;;;;;;;;;;10414040;28;20042;-77
2023/04/02 10:18:57;;;;;;;0.90;0.47;;;;;;;;;;10415175;28;20037;-78
2023/04/02 10:24:04;;;;;;;2.97;1.00;;;;;;;;;;10419452;28;20041;-77
2023/04/02 10:29:21;;;;;;;1.10;1.00;;;;;;;;;;10412558;28;20044;-78
2023/04/02 10:34:29;;;;;;;1.55;0.85;;;;;;;;;;10419021;28;20480;-78
2023/04/02 10:39:35;;;;;;;1.92;0.85;;;;;;;;;;10419794;28;20095;-79
2023/04/02 10:44:43;;;;;;;0.90;0.60;;;;;;;;;;10419203;28;20037;-77
2023/04/02 10:49:50;;;;;;;1.70;0.73;;;;;;;;;;10423350;28;20071;-78
2023/04/02 10:54:56;;;;;;;1.13;1.02;;;;;;;;;;10420986;28;20048;-78
2023/04/02 11:00:06;;;;;;;0.52;0.50;;;;;;;;;;10413643;28;20131;-78
2023/04/02 11:05:19;;;;;;;1.23;0.80;;;;;;;;;;10418995;28;20432;-78
2023/04/02 11:10:26;;;;;;;1.50;0.65;;;;;;;;;;10410311;28;20107;-78
2023/04/02 11:15:29;;;;;;;2.00;0.98;;;;;;;;;;10417615;28;20076;-79
2023/04/02 11:20:43;;;;;;;0.70;0.60;;;;;;;;;;10416417;28;20041;-77
2023/04/02 11:25:48;;;;;;;1.83;0.90;;;;;;;;;;10414964;28;20033;-79
2023/04/02 11:30:52;;;;;;;1.17;0.80;;;;;;;;;;10418524;28;20049;-78
2023/04/02 11:35:55;;;;;;;2.28;0.80;;;;;;;;;;10417566;28;20111;-78
2023/04/02 11:41:00;;;;;;;0.73;0.73;;;;;;;;;;10415750;28;20073;-78
2023/04/02 11:46:04;;;;;;;2.33;0.80;;;;;;;;;;10406101;28;20614;-79
2023/04/02 11:51:06;;;;;;;;;;;;;;;;;;10412262;28;20060;-77
2023/04/02 11:56:18;;;;;;;0.73;0.73;;;;;;;;;;10410374;28;19943;-78
2023/04/02 12:01:29;;;;;;;0.82;0.82;;;;;;;;;;10412171;28;20052;-78
2023/04/02 12:06:41;;;;;;;0.77;0.77;;;;;;;;;;10412904;28;20470;-78
2023/04/02 12:11:46;;;;;;;1.13;0.80;;;;;;;;;;10416782;28;20033;-77
2023/04/02 12:16:49;;;;;;;1.73;0.60;;;;;;;;;;10411872;28;20499;-78
2023/04/02 12:21:53;;;;;;;2.38;1.10;;;;;;;;;;10414425;28;20502;-79
2023/04/02 12:27:16;;;;;;;1.13;0.70;;;;;;;;;;10410097;28;20147;-77
2023/04/02 12:32:21;;;;;;;1.48;0.85;;;;;;;;;;10415226;28;20045;-78
2023/04/02 12:37:25;;;;;;;1.25;1.15;;;;;;;;;;10416596;28;20040;-78
2023/04/02 12:42:31;;;;;;;1.23;0.98;;;;;;;;;;10407329;28;20055;-78
2023/04/02 12:47:34;;;;;;;1.50;1.05;;;;;;;;;;10388170;28;20033;-79
2023/04/02 12:52:43;;;;;;;1.77;1.07;;;;;;;;;;10408341;28;20041;-80
2023/04/02 12:57:49;;;;;;;2.22;1.10;;;;;;;;;;10414324;28;20034;-79
2023/04/02 13:02:59;;;;;;;1.80;1.10;;;;;;;;;;10416903;28;20051;-78
2023/04/02 13:08:03;;;;;;;2.55;1.17;;;;;;;;;;10413069;28;20468;-78
2023/04/02 13:13:13;;;;;;;1.23;1.05;;;;;;;;;;10422216;28;20478;-79
2023/04/02 13:18:19;;;;;;;2.53;1.27;;;;;;;;;;10411981;28;20037;-79
2023/04/02 13:23:24;;;;;;;2.97;1.20;;;;;;;;;;10428364;28;20044;-79
2023/04/02 13:28:28;;;;;;;1.27;1.10;;;;;;;;;;10426931;28;20040;-78
2023/04/02 13:33:30;;;;;;;;;;;;;;;;;;10417866;28;20281;-78
2023/04/02 13:38:33;;;;;;;1.60;1.23;;;;;;;;;;10424587;28;19975;-78
2023/04/02 13:43:37;;;;;;;1.97;1.70;;;;;;;;;;10397698;28;20057;-78
2023/04/02 13:48:40;;;;;;;;;;;;;;;;;;10422516;28;20041;-78
2023/04/02 13:53:42;;;;;;;2.03;1.60;;;;;;;;;;10416614;28;19929;-78
2023/04/02 13:58:47;;;;;;;2.58;1.23;;;;;;;;;;10420488;28;20048;-78
2023/04/02 14:03:50;;;;;;;1.92;1.10;;;;;;;;;;10418889;28;20426;-79
2023/04/02 14:08:56;;;;;;;2.23;1.40;;;;;;;;;;10402177;28;20051;-78
2023/04/02 14:14:10;;;;;;;1.50;0.80;;;;;;;;;;10426683;28;20143;-78
2023/04/02 14:19:19;;;;;;;1.48;1.00;;;;;;;;;;10423318;28;20145;-77
2023/04/02 14:24:27;;;;;;;8.85;3.20;;;;;;;;;;10422655;28;20454;-78
2023/04/02 14:29:35;;;;;;;0.82;0.80;;;;;;;;;;10417849;28;20068;-79
2023/04/02 14:34:53;;;;;;;1.42;0.70;;;;;;;;;;10414089;28;20045;-79
2023/04/02 14:40:02;;;;;;;1.42;0.80;;;;;;;;;;10418079;28;20079;-78
2023/04/02 14:45:09;;;;;;;0.30;0.30;;;;;;;;;;10419229;28;20162;-78
2023/04/02 14:50:16;;;;;;;3.28;1.42;;;;;;;;;;10420664;28;20056;-78
2023/04/02 14:55:23;;;;;;;1.10;0.85;;;;;;;;;;10413257;28;20052;-78
2023/04/02 15:00:32;;;;;;;1.35;0.65;;;;;;;;;;10422791;28;20033;-78
2023/04/02 15:05:40;;;;;;;1.40;0.77;;;;;;;;;;10417043;28;20049;-78
2023/04/02 15:10:48;;;;;;;0.80;0.68;;;;;;;;;;10422120;28;20048;-78
2023/04/02 15:15:55;;;;;;;1.15;1.02;;;;;;;;;;10420435;28;20507;-77
2023/04/02 15:21:04;;;;;;;3.30;1.55;;;;;;;;;;10419194;28;20049;-79
2023/04/02 15:26:12;;;;;;;1.10;1.00;;;;;;;;;;10418233;28;20096;-79
2023/04/02 15:31:17;;;;;;;3.83;1.83;;;;;;;;;;10420285;28;20088;-79
2023/04/02 15:36:32;;;;;;;1.10;0.95;;;;;;;;;;10415745;28;20048;-78
2023/04/02 15:41:53;;;;;;;1.52;1.13;;;;;;;;;;10415450;28;20063;-78
2023/04/02 15:47:05;;;;;;;1.90;1.45;;;;;;;;;;10418213;28;20049;-78
2023/04/02 15:52:12;;;;;;;3.63;2.10;;;;;;;;;;10413048;28;20111;-78
2023/04/02 15:57:20;;;;;;;3.22;1.60;;;;;;;;;;10424533;28;20541;-78
2023/04/02 16:02:36;;;;;;;3.58;1.60;;;;;;;;;;10419591;28;20101;-78
2023/04/02 16:07:51;;;;;;;4.63;1.70;;;;;;;;;;10418846;28;20053;-79
2023/04/02 16:12:56;;;;;;;3.13;1.90;;;;;;;;;;10398637;28;20060;-78
2023/04/02 16:18:01;;;;;;;2.88;1.80;;;;;;;;;;10414630;28;20526;-78
2023/04/02 16:23:06;;;;;;;4.22;2.13;;;;;;;;;;10398645;28;20139;-79
2023/04/02 16:28:15;;;;;;;4.82;2.47;;;;;;;;;;10412113;28;20041;-78
2023/04/02 16:33:42;;;;;;;5.85;2.85;;;;;;;;;;10395684;28;20045;-77
2023/04/02 16:38:52;;;;;;;5.53;2.45;;;;;;;;;;10381630;28;20044;-78
2023/04/02 16:44:00;;;;;;;4.13;2.65;;;;;;;;;;10422461;28;20041;-78
2023/04/02 16:49:06;;;;;;;4.45;3.08;;;;;;;;;;10428159;28;20061;-77
2023/04/02 16:54:13;;;;;;;3.60;2.22;;;;;;;;;;10422750;28;20073;-78
2023/04/02 16:59:19;;;;;;;5.80;2.60;;;;;;;;;;10420689;28;20107;-78
2023/04/02 17:04:28;;;;;;;4.22;2.67;;;;;;;;;;10419816;28;20652;-76
2023/04/02 17:09:40;;;;;;;5.50;2.67;;;;;;;;;;10409930;28;20038;-77
2023/04/02 17:14:46;;;;;;;4.72;2.80;;;;;;;;;;10398577;28;20041;-77
2023/04/02 17:19:51;;;;;;;3.35;2.30;;;;;;;;;;10422348;28;20569;-78
2023/04/02 17:24:57;;;;;;;3.45;2.33;;;;;;;;;;10419753;28;20039;-77
2023/04/02 17:30:01;;;;;;;4.97;2.35;;;;;;;;;;10402477;28;20534;-78
2023/04/02 17:35:03;;;;;;;;;;;;;;;;;;10424133;28;20105;-78
2023/04/02 17:40:18;;;;;;;7.32;3.65;;;;;;;;;;10422601;28;20015;-79
2023/04/02 17:45:24;;;;;;;4.30;2.75;;;;;;;;;;10422329;28;20498;-78
2023/04/02 17:50:44;;;;;;;6.22;3.50;;;;;;;;;;10418133;28;20088;-79
2023/04/02 17:55:59;;;;;;;4.72;2.83;;;;;;;;;;10420163;28;20128;-80
2023/04/02 18:01:05;;;;;;;6.22;3.42;;;;;;;;;;10421384;28;20310;-77
2023/04/02 18:06:10;;;;;;;6.78;3.63;;;;;;;;;;10416491;28;20080;-77
2023/04/02 18:11:20;;;;;;;5.00;3.20;;;;;;;;;;10417096;28;20037;-77
2023/04/02 18:16:33;;;;;;;5.13;3.15;;;;;;;;;;10422241;28;20514;-79
2023/04/02 18:21:39;;;;;;;5.95;3.47;;;;;;;;;;10422502;28;20080;-78
2023/04/02 18:26:48;;;;;;;5.68;3.80;;;;;;;;;;10412760;28;20059;-79
2023/04/02 18:31:54;;;;;;;5.38;3.60;;;;;;;;;;10416736;28;20432;-77
2023/04/02 18:37:03;;;;;;;6.07;3.55;;;;;;;;;;10416849;28;20037;-78
2023/04/02 18:42:10;;;;;;;8.13;4.55;;;;;;;;;;10420698;28;20462;-78
2023/04/02 18:47:19;;;;;;;7.07;3.33;;;;;;;;;;10420319;28;20045;-78
2023/04/02 18:52:23;;;;;;;6.97;3.40;;;;;;;;;;10415729;28;20159;-77
2023/04/02 18:57:29;;;;;;;6.50;3.50;;;;;;;;;;10417771;28;20033;-78
2023/04/02 19:02:40;;;;;;;6.15;3.58;;;;;;;;;;10419029;28;20041;-78
2023/04/02 19:07:45;;;;;;;7.68;4.22;;;;;;;;;;10419769;28;20521;-78
2023/04/02 19:12:49;;;;;;;7.20;4.00;;;;;;;;;;10413035;28;20115;-78
2023/04/02 19:17:53;;;;;;;;;;;;;;;;;;10414414;28;20046;-78
2023/04/02 19:22:56;;;;;;;;;;;;;;;;;;10417617;28;20006;-77
2023/04/02 19:28:06;;;;;;;5.95;3.55;;;;;;;;;;10417698;28;20395;-78
2023/04/02 19:33:14;;;;;;;4.25;2.47;;;;;;;;;;10417129;28;20076;-79
2023/04/02 19:38:28;;;;;;;7.95;4.10;;;;;;;;;;10420607;28;20036;-80
2023/04/02 19:43:32;;;;;;;6.50;4.20;;;;;;;;;;10414220;28;20061;-79
2023/04/02 19:48:39;;;;;;;7.38;4.55;;;;;;;;;;10418810;28;20140;-79
2023/04/02 19:53:43;;;;;;;7.80;4.40;;;;;;;;;;10416658;28;20045;-79
2023/04/02 19:58:47;;;;;;;9.15;4.35;;;;;;;;;;10417746;28;20047;-78
2023/04/02 20:03:50;;;;;;;8.25;3.70;;;;;;;;;;10415014;28;20033;-77
2023/04/02 20:08:52;;;;;;;7.97;4.05;;;;;;;;;;10418017;28;20073;-77
2023/04/02 20:13:58;;;;;;;9.00;5.18;;;;;;;;;;10412616;28;20126;-78
2023/04/02 20:19:01;;;;;;;8.52;4.40;;;;;;;;;;10424408;28;19921;-79
2023/04/02 20:24:04;;;;;;;5.88;3.30;;;;;;;;;;10421934;28;20177;-77
2023/04/02 20:29:08;;;;;;;7.00;3.37;;;;;;;;;;10425708;28;20053;-78
2023/04/02 20:34:11;;;;;;;5.78;3.38;;;;;;;;;;10417953;28;20510;-78
2023/04/02 20:39:18;;;;;;;6.45;3.95;;;;;;;;;;10420336;28;20692;-78
2023/04/02 20:44:22;;;;;;;8.45;3.95;;;;;;;;;;10427325;28;20490;-78
2023/04/02 20:49:25;;;;;;;11.38;4.20;;;;;;;;;;10421879;28;20042;-79
2023/04/02 20:54:28;;;;;;;8.65;4.25;;;;;;;;;;10419161;28;20120;-78
2023/04/02 20:59:31;;;;;;;7.05;3.90;;;;;;;;;;10420197;28;20081;-78
2023/04/02 21:04:34;;;;;;;9.07;4.40;;;;;;;;;;10413226;28;20095;-78
2023/04/02 21:09:37;;;;;;;10.15;4.32;;;;;;;;;;10420149;28;20037;-77
2023/04/02 21:14:41;;;;;;;7.23;3.73;;;;;;;;;;10425729;28;20344;-78
2023/04/02 21:19:44;;;;;;;11.65;4.90;;;;;;;;;;10402208;28;20086;-78
2023/04/02 21:24:47;;;;;;;8.18;4.00;;;;;;;;;;10423655;28;20270;-78
2023/04/02 21:29:51;;;;;;;7.68;3.35;;;;;;;;;;10397254;28;20168;-77
2023/04/02 21:34:54;;;;;;;9.80;5.25;;;;;;;;;;10417567;28;20132;-77
2023/04/02 21:39:57;;;;;;;9.68;4.22;;;;;;;;;;10395469;28;20049;-77
2023/04/02 21:45:01;;;;;;;7.65;4.07;;;;;;;;;;10412624;28;20095;-77
2023/04/02 21:50:04;;;;;;;8.15;4.38;;;;;;;;;;10421361;28;20502;-77
2023/04/02 21:55:08;;;;;;;10.15;4.68;;;;;;;;;;10419128;28;20137;-77
2023/04/02 22:00:14;;;;;;;10.60;5.30;;;;;;;;;;10415876;28;20038;-77
2023/04/02 22:05:18;;;;;;;10.38;4.75;;;;;;;;;;10416957;28;20041;-77
2023/04/02 22:10:21;;;;;;;9.65;3.42;;;;;;;;;;10396378;28;20139;-76
2023/04/02 22:15:25;;;;;;;12.73;5.05;;;;;;;;;;10417439;28;20045;-77
2023/04/02 22:20:29;;;;;;;9.85;5.57;;;;;;;;;;10414425;28;20128;-76
2023/04/02 22:25:32;;;;;;;11.25;5.05;;;;;;;;;;10399963;28;20044;-76
2023/04/02 22:30:37;;;;;;;11.48;5.95;;;;;;;;;;10411430;28;20052;-77
2023/04/02 22:35:40;;;;;;;12.50;5.40;;;;;;;;;;10417627;28;20040;-78
2023/04/02 22:40:45;;;;;;;12.13;4.80;;;;;;;;;;10420437;28;20060;-76
2023/04/02 22:45:49;;;;;;;13.55;5.63;;;;;;;;;;10413607;28;20046;-76
2023/04/02 22:50:52;;;;;;;15.93;5.95;;;;;;;;;;10398596;28;20041;-76
2023/04/02 22:56:01;;;;;;;11.50;5.63;;;;;;;;;;10400363;28;20037;-76
2023/04/02 23:01:07;;;;;;;11.57;5.68;;;;;;;;;;10410362;28;20048;-75
2023/04/02 23:06:20;;;;;;;11.30;5.50;;;;;;;;;;10423876;28;20118;-75
2023/04/02 23:11:24;;;;;;;10.68;5.20;;;;;;;;;;10408151;28;20052;-78
2023/04/02 23:16:29;;;;;;;13.02;5.80;;;;;;;;;;10412758;28;20350;-76
2023/04/02 23:21:31;;;;;;;13.20;6.07;;;;;;;;;;10408918;28;20084;-78
2023/04/02 23:26:34;;;;;;;12.15;5.93;;;;;;;;;;10414872;28;20045;-76
2023/04/02 23:31:38;;;;;;;11.82;6.15;;;;;;;;;;10418147;28;20045;-76
2023/04/02 23:36:41;;;;;;;10.65;5.15;;;;;;;;;;10415979;28;20103;-78
2023/04/02 23:41:44;;;;;;;12.60;5.70;;;;;;;;;;10406953;28;20033;-77
2023/04/02 23:46:48;;;;;;;12.02;4.90;;;;;;;;;;10416564;28;20616;-76
2023/04/02 23:51:52;;;;;;;11.18;5.10;;;;;;;;;;10417906;28;20037;-76
2023/04/02 23:56:54;;;;;;;11.15;5.32;;;;;;;;;;10395895;28;20041;-76
